createdAt,value
2022-11-18T00:01:11.707Z,99564.78
2022-11-18T00:03:39.480Z,99562.59
2022-11-18T00:06:07.377Z,99556.78
2022-11-18T00:08:34.360Z,99568.38
2022-11-18T00:11:12.602Z,99575.34
2022-11-18T00:13:39.258Z,99578.97
2022-11-18T00:16:08.505Z,99583.38
2022-11-18T00:18:35.346Z,99587.78
2022-11-18T00:21:09.437Z,99594.81
2022-11-18T00:23:36.587Z,99593.66
2022-11-18T00:26:05.132Z,99597.03
2022-11-18T00:28:32.295Z,99594.88
2022-11-18T00:31:03.240Z,99601.25
2022-11-18T00:33:29.623Z,99603.28
2022-11-18T00:35:55.990Z,99602.53
2022-11-18T00:38:22.609Z,99603.56
2022-11-18T00:40:48.979Z,99602.41
2022-11-18T00:43:15.254Z,99605.22
2022-11-18T00:45:42.643Z,99610.66
2022-11-18T00:48:08.989Z,99616.66
2022-11-18T00:50:35.360Z,99612.47
2022-11-18T00:53:01.728Z,99609.06
2022-11-18T00:55:28.097Z,99609.63
2022-11-18T00:57:54.399Z,99612.38
2022-11-18T01:00:20.702Z,99621.94
2022-11-18T01:02:47.011Z,99608.91
2022-11-18T01:05:13.286Z,99632.28
2022-11-18T01:07:39.677Z,99623.88
2022-11-18T01:10:06.257Z,99627.91
2022-11-18T01:12:32.554Z,99637.88
2022-11-18T01:14:59.305Z,99636.09
2022-11-18T01:17:25.661Z,99632.94
2022-11-18T01:19:51.955Z,99631.78
2022-11-18T01:22:18.234Z,99641.78
2022-11-18T01:24:44.663Z,99640.22
2022-11-18T01:27:11.039Z,99643.69
2022-11-18T01:29:37.340Z,99649.47
2022-11-18T01:34:50.037Z,99660.09
2022-11-18T01:37:16.341Z,99649.16
2022-11-18T01:39:42.599Z,99657.75
2022-11-18T01:42:14.979Z,99661.78
2022-11-18T01:45:19.485Z,99660.22
2022-11-18T01:47:51.748Z,99661.88
2022-11-18T01:50:18.631Z,99664.66
2022-11-18T01:52:51.278Z,99668.50
2022-11-18T01:55:24.427Z,99673.50
2022-11-18T01:57:53.761Z,99667.50
2022-11-18T02:00:20.288Z,99675.09
2022-11-18T02:02:47.233Z,99663.13
2022-11-18T02:05:14.446Z,99677.34
2022-11-18T02:07:43.297Z,99674.34
2022-11-18T02:10:18.518Z,99684.31
2022-11-18T02:12:44.949Z,99672.53
2022-11-18T02:15:11.383Z,99673.56
2022-11-18T02:18:09.740Z,99689.31
2022-11-18T02:20:41.551Z,99693.94
2022-11-18T02:23:13.534Z,99695.16
2022-11-18T02:26:00.052Z,99694.97
2022-11-18T02:28:41.396Z,99694.38
2022-11-18T02:31:41.544Z,99712.34
2022-11-18T02:34:25.424Z,99706.91
2022-11-18T02:36:58.475Z,99704.88
2022-11-18T02:39:34.524Z,99701.66
2022-11-18T02:42:05.096Z,99707.84
2022-11-18T02:44:32.507Z,99706.59
2022-11-18T02:47:03.911Z,99715.34
2022-11-18T02:49:41.706Z,99720.72
2022-11-18T02:52:10.553Z,99712.13
2022-11-18T02:54:44.104Z,99723.50
2022-11-18T02:57:11.128Z,99725.47
2022-11-18T02:59:37.450Z,99726.44
2022-11-18T03:02:04.091Z,99727.38
2022-11-18T03:04:31.788Z,99722.81
2022-11-18T03:07:12.712Z,99716.16
2022-11-18T03:09:42.541Z,99729.53
2022-11-18T03:12:41.826Z,99732.72
2022-11-18T03:15:14.231Z,99725.28
2022-11-18T03:18:16.581Z,99735.13
2022-11-18T03:20:49.418Z,99740.28
2022-11-18T03:23:27.865Z,99745.47
2022-11-18T03:25:59.324Z,99746.31
2022-11-18T03:28:35.383Z,99742.53
2022-11-18T03:31:04.852Z,99747.25
2022-11-18T03:33:36.005Z,99749.84
2022-11-18T03:36:07.639Z,99748.25
2022-11-18T03:38:38.501Z,99753.47
2022-11-18T03:41:09.291Z,99762.69
2022-11-18T03:43:44.908Z,99765.06
2022-11-18T03:46:16.857Z,99761.88
2022-11-18T03:48:55.308Z,99766.66
2022-11-18T03:51:31.518Z,99776.28
2022-11-18T03:54:03.143Z,99782.28
2022-11-18T03:56:34.489Z,99781.84
2022-11-18T03:59:04.543Z,99787.63
2022-11-18T04:01:40.933Z,99787.88
2022-11-18T04:04:07.856Z,99778.06
2022-11-18T04:06:42.477Z,99790.69
2022-11-18T04:09:32.136Z,99782.09
2022-11-18T04:12:04.525Z,99799.50
2022-11-18T04:14:39.148Z,99806.34
2022-11-18T04:17:09.689Z,99804.72
2022-11-18T04:19:36.703Z,99809.00
2022-11-18T04:22:03.060Z,99809.34
2022-11-18T04:24:29.365Z,99813.19
2022-11-18T04:26:55.699Z,99814.78
2022-11-18T04:29:22.222Z,99812.97
2022-11-18T04:31:48.639Z,99815.16
2022-11-18T04:34:15.061Z,99830.38
2022-11-18T04:36:41.531Z,99821.41
2022-11-18T04:39:08.082Z,99823.22
2022-11-18T04:41:34.389Z,99830.19
2022-11-18T04:44:00.703Z,99827.19
2022-11-18T04:46:27.037Z,99822.78
2022-11-18T04:48:53.416Z,99837.16
2022-11-18T04:51:19.735Z,99829.16
2022-11-18T04:53:46.060Z,99843.34
2022-11-18T04:56:12.390Z,99831.94
2022-11-18T04:58:38.724Z,99843.16
2022-11-18T05:01:05.058Z,99843.16
2022-11-18T05:03:31.376Z,99843.97
2022-11-18T05:06:01.767Z,99854.78
2022-11-18T05:08:28.082Z,99845.56
2022-11-18T05:10:54.422Z,99856.97
2022-11-18T05:13:20.794Z,99854.38
2022-11-18T05:15:47.144Z,99863.50
2022-11-18T05:18:13.505Z,99850.34
2022-11-18T05:20:41.705Z,99858.34
2022-11-18T05:23:08.260Z,99864.75
2022-11-18T05:25:35.703Z,99870.94
2022-11-18T05:28:01.996Z,99863.19
2022-11-18T05:30:28.327Z,99865.97
2022-11-18T05:32:54.679Z,99880.97
2022-11-18T05:35:20.974Z,99883.16
2022-11-18T05:37:47.307Z,99884.38
2022-11-18T05:40:13.713Z,99873.34
2022-11-18T05:42:40.069Z,99890.19
2022-11-18T05:45:06.779Z,99894.81
2022-11-18T05:47:33.109Z,99896.84
2022-11-18T05:49:59.396Z,99894.03
2022-11-18T05:52:25.780Z,99892.84
2022-11-18T05:54:52.273Z,99896.25
2022-11-18T05:57:18.593Z,99893.50
2022-11-18T05:59:44.962Z,99914.13
2022-11-18T06:02:16.830Z,99904.72
2022-11-18T06:04:49.027Z,99909.72
2022-11-18T06:07:18.931Z,99909.09
2022-11-18T06:09:50.425Z,99914.50
2022-11-18T06:12:21.280Z,99919.72
2022-11-18T06:14:51.712Z,99923.13
2022-11-18T06:17:23.748Z,99930.97
2022-11-18T06:19:50.288Z,99933.81
2022-11-18T06:22:16.695Z,99924.22
2022-11-18T06:24:43.816Z,99934.59
2022-11-18T06:27:10.830Z,99945.78
2022-11-18T06:29:37.153Z,99951.38
2022-11-18T06:32:03.576Z,99942.97
2022-11-18T06:34:29.876Z,99948.97
2022-11-18T06:36:56.278Z,99957.38
2022-11-18T06:39:22.579Z,99958.78
2022-11-18T06:41:48.891Z,99965.78
2022-11-18T06:44:15.245Z,99957.78
2022-11-18T06:46:41.552Z,99968.59
2022-11-18T06:49:08.098Z,99965.22
2022-11-18T06:51:34.488Z,99982.28
2022-11-18T06:54:02.702Z,99980.28
2022-11-18T06:56:31.145Z,99983.47
2022-11-18T06:58:58.979Z,99992.34
2022-11-18T07:01:27.617Z,99994.94
2022-11-18T07:03:54.377Z,100004.75
2022-11-18T07:06:22.844Z,100003.53
2022-11-18T07:08:50.371Z,100005.97
2022-11-18T07:11:20.228Z,100013.16
2022-11-18T07:13:47.510Z,100019.81
2022-11-18T07:16:19.513Z,100011.97
2022-11-18T07:18:47.942Z,100015.41
2022-11-18T07:21:20.389Z,100022.84
2022-11-18T07:23:47.674Z,100029.25
2022-11-18T07:26:14.610Z,100026.91
2022-11-18T07:28:41.260Z,100047.09
2022-11-18T07:31:15.647Z,100041.91
2022-11-18T07:33:43.670Z,100036.88
2022-11-18T07:36:21.874Z,100040.09
2022-11-18T07:38:49.602Z,100040.88
2022-11-18T07:41:23.999Z,100049.44
2022-11-18T07:43:54.975Z,100050.47
2022-11-18T07:46:26.383Z,100065.69
2022-11-18T07:48:55.248Z,100061.66
2022-11-18T07:51:34.586Z,100067.47
2022-11-18T07:54:01.798Z,100064.66
2022-11-18T07:56:28.102Z,100070.47
2022-11-18T07:58:55.647Z,100072.69
2022-11-18T08:01:26.380Z,100076.06
2022-11-18T08:03:52.795Z,100078.28
2022-11-18T08:06:19.551Z,100071.66
2022-11-18T08:08:46.253Z,100094.34
2022-11-18T08:11:21.617Z,100095.50
2022-11-18T08:13:48.480Z,100097.72
2022-11-18T08:16:17.310Z,100106.91
2022-11-18T08:18:44.290Z,100108.31
2022-11-18T08:21:11.087Z,100091.84
2022-11-18T08:23:41.883Z,100117.69
2022-11-18T08:26:14.197Z,100125.88
2022-11-18T08:28:41.939Z,100123.28
2022-11-18T08:31:13.190Z,100119.66
2022-11-18T08:33:40.230Z,100126.44
2022-11-18T08:36:21.055Z,100137.06
2022-11-18T08:38:47.706Z,100135.84
2022-11-18T08:41:17.596Z,100125.59
2022-11-18T08:43:44.178Z,100139.19
2022-11-18T08:46:10.514Z,100141.19
2022-11-18T08:48:36.909Z,100141.56
2022-11-18T08:51:04.754Z,100139.19
2022-11-18T08:53:31.632Z,100152.81
2022-11-18T08:55:59.377Z,100140.16
2022-11-18T08:58:26.769Z,100159.00
2022-11-18T09:00:53.209Z,100154.00
2022-11-18T09:03:19.960Z,100149.78
2022-11-18T09:05:46.526Z,100161.78
2022-11-18T09:08:15.024Z,100149.47
2022-11-18T09:10:41.510Z,100163.44
2022-11-18T09:13:33.732Z,100172.19
2022-11-18T09:15:54.162Z,100176.97
2022-11-18T09:18:20.481Z,100179.00
2022-11-18T09:20:57.646Z,100171.59
2022-11-18T09:23:24.142Z,100179.00
2022-11-18T09:26:03.274Z,100170.63
2022-11-18T09:28:30.007Z,100174.63
2022-11-18T09:30:56.656Z,100189.84
2022-11-18T09:33:23.141Z,100190.22
2022-11-18T09:35:49.927Z,100200.56
2022-11-18T09:38:16.689Z,100189.66
2022-11-18T09:41:06.061Z,100196.72
2022-11-18T09:43:38.139Z,100200.09
2022-11-18T09:46:31.923Z,100191.88
2022-11-18T09:49:03.085Z,100190.69
2022-11-18T09:51:39.246Z,100207.28
2022-11-18T09:54:10.412Z,100199.81
2022-11-18T09:56:36.801Z,100200.59
2022-11-18T09:59:04.042Z,100203.78
2022-11-18T10:01:30.922Z,100202.91
2022-11-18T10:03:57.270Z,100222.50
2022-11-18T10:06:28.589Z,100209.41
2022-11-18T10:09:05.229Z,100213.41
2022-11-18T10:12:02.629Z,100226.25
2022-11-18T10:14:39.909Z,100218.09
2022-11-18T10:17:24.703Z,100229.66
2022-11-18T10:20:10.802Z,100233.78
2022-11-18T10:22:54.412Z,100214.00
2022-11-18T10:27:49.749Z,100229.63
2022-11-18T10:30:22.399Z,100233.31
2022-11-18T10:33:00.837Z,100234.66
2022-11-18T10:35:31.774Z,100235.13
2022-11-18T10:38:08.905Z,100222.00
2022-11-18T10:40:37.936Z,100236.72
2022-11-18T10:43:04.303Z,100232.94
2022-11-18T10:45:32.631Z,100246.63
2022-11-18T10:48:09.597Z,100252.94
2022-11-18T10:50:38.922Z,100256.91
2022-11-18T10:53:17.914Z,100256.09
2022-11-18T10:55:58.391Z,100250.13
2022-11-18T10:58:25.287Z,100252.75
2022-11-18T11:00:51.902Z,100259.75
2022-11-18T11:03:56.739Z,100258.06
2022-11-18T11:06:28.937Z,100261.16
2022-11-18T11:08:56.361Z,100265.28
2022-11-18T11:11:36.295Z,100268.91
2022-11-18T11:14:26.529Z,100271.22
2022-11-18T11:17:11.446Z,100274.44
2022-11-18T11:20:06.467Z,100268.59
2022-11-18T11:22:33.288Z,100259.44
2022-11-18T11:24:59.620Z,100266.84
2022-11-18T11:30:25.197Z,100272.50
2022-11-18T11:33:10.992Z,100273.63
2022-11-18T11:35:53.948Z,100288.34
2022-11-18T11:38:45.501Z,100275.13
2022-11-18T11:41:22.967Z,100271.09
2022-11-18T11:43:54.783Z,100274.31
2022-11-18T11:46:37.876Z,100275.56
2022-11-18T11:49:10.725Z,100287.38
2022-11-18T11:51:54.462Z,100282.69
2022-11-18T11:54:32.868Z,100292.97
2022-11-18T11:57:05.208Z,100292.03
2022-11-18T11:59:50.521Z,100288.38
2022-11-18T12:02:40.193Z,100289.38
2022-11-18T12:05:25.381Z,100295.06
2022-11-18T12:07:56.077Z,100281.38
2022-11-18T12:10:35.872Z,100290.72
2022-11-18T12:13:20.849Z,100302.78
2022-11-18T12:15:55.507Z,100302.25
2022-11-18T12:18:33.134Z,100290.16
2022-11-18T12:20:59.486Z,100275.63
2022-11-18T12:23:28.144Z,100278.94
2022-11-18T12:26:09.046Z,100288.91
2022-11-18T12:28:44.789Z,100289.97
2022-11-18T12:31:20.022Z,100304.66
2022-11-18T12:34:04.043Z,100303.66
2022-11-18T12:36:34.755Z,100301.31
2022-11-18T12:39:25.649Z,100303.78
2022-11-18T12:41:59.680Z,100305.53
2022-11-18T12:44:39.004Z,100306.38
2022-11-18T12:47:09.955Z,100309.00
2022-11-18T12:49:36.222Z,100313.19
2022-11-18T12:52:05.047Z,100321.38
2022-11-18T12:54:47.409Z,100312.88
2022-11-18T12:57:20.648Z,100313.53
2022-11-18T12:59:47.365Z,100320.25
2022-11-18T13:02:29.474Z,100327.06
2022-11-18T13:05:08.088Z,100328.31
2022-11-18T13:07:53.605Z,100326.78
2022-11-18T13:10:27.537Z,100332.59
2022-11-18T13:12:55.288Z,100331.22
2022-11-18T13:15:21.963Z,100328.44
2022-11-18T13:17:48.293Z,100339.38
2022-11-18T13:20:26.924Z,100352.22
2022-11-18T13:22:56.155Z,100353.25
2022-11-18T13:25:25.974Z,100351.06
2022-11-18T13:28:46.189Z,100348.28
2022-11-18T13:31:26.295Z,100368.25
2022-11-18T13:33:53.282Z,100364.47
2022-11-18T13:36:22.752Z,100353.63
2022-11-18T13:38:59.999Z,100364.94
2022-11-18T13:41:28.386Z,100377.00
2022-11-18T13:43:54.727Z,100350.09
2022-11-18T13:46:22.563Z,100377.19
2022-11-18T13:48:56.444Z,100369.16
2022-11-18T13:51:23.745Z,100373.59
2022-11-18T13:53:50.651Z,100354.75
2022-11-18T13:56:30.426Z,100364.63
2022-11-18T13:59:18.137Z,100362.22
2022-11-18T14:01:46.450Z,100367.66
2022-11-18T14:04:22.068Z,100377.53
2022-11-18T14:06:48.502Z,100373.94
2022-11-18T14:09:30.098Z,100378.97
2022-11-18T14:12:01.175Z,100367.78
2022-11-18T14:14:33.362Z,100386.25
2022-11-18T14:17:17.391Z,100383.03
2022-11-18T14:19:44.870Z,100367.22
2022-11-18T14:22:18.834Z,100383.28
2022-11-18T14:24:56.313Z,100386.50
2022-11-18T14:27:45.860Z,100394.16
2022-11-18T14:30:38.359Z,100388.13
2022-11-18T14:33:22.478Z,100386.34
2022-11-18T14:36:03.772Z,100401.41
2022-11-18T14:38:47.665Z,100402.78
2022-11-18T14:41:23.134Z,100391.91
2022-11-18T14:43:49.485Z,100393.09
2022-11-18T14:46:18.746Z,100399.13
2022-11-18T14:48:46.044Z,100398.91
2022-11-18T14:51:14.448Z,100406.91
2022-11-18T14:53:41.762Z,100417.38
2022-11-18T14:56:15.931Z,100411.56
2022-11-18T14:58:42.309Z,100406.91
2022-11-18T15:01:11.444Z,100412.97
2022-11-18T15:03:38.471Z,100426.66
2022-11-18T15:06:11.918Z,100425.69
2022-11-18T15:08:38.524Z,100429.41
2022-11-18T15:11:04.898Z,100430.09
2022-11-18T15:13:31.227Z,100431.78
2022-11-18T15:15:57.749Z,100426.63
2022-11-18T15:18:24.065Z,100427.44
2022-11-18T15:20:51.472Z,100443.34
2022-11-18T15:23:18.010Z,100440.78
2022-11-18T15:25:44.392Z,100451.22
2022-11-18T15:28:10.854Z,100442.81
2022-11-18T15:30:37.190Z,100435.41
2022-11-18T15:33:03.501Z,100446.84
2022-11-18T15:35:29.810Z,100447.44
2022-11-18T15:37:56.147Z,100455.47
2022-11-18T15:40:22.486Z,100462.69
2022-11-18T15:42:52.023Z,100453.06
2022-11-18T15:45:18.730Z,100472.31
2022-11-18T15:47:45.152Z,100464.69
2022-11-18T15:50:11.457Z,100473.91
2022-11-18T15:52:37.811Z,100480.53
2022-11-18T15:55:07.893Z,100475.69
2022-11-18T15:57:34.653Z,100482.28
2022-11-18T16:00:01.000Z,100482.81
2022-11-18T16:02:27.352Z,100485.81
2022-11-18T16:04:53.668Z,100498.66
2022-11-18T16:07:20.125Z,100502.03
2022-11-18T16:09:46.497Z,100494.94
2022-11-18T16:12:12.862Z,100503.34
2022-11-18T16:14:39.189Z,100497.50
2022-11-18T16:17:05.538Z,100506.09
2022-11-18T16:19:31.900Z,100512.47
2022-11-18T16:21:58.335Z,100507.81
2022-11-18T16:24:27.237Z,100517.19
2022-11-18T16:26:53.838Z,100516.31
2022-11-18T16:29:21.099Z,100534.78
2022-11-18T16:31:49.300Z,100517.47
2022-11-18T16:34:27.056Z,100524.88
2022-11-18T16:36:55.802Z,100542.84
2022-11-18T16:39:24.399Z,100545.44
2022-11-18T16:41:52.157Z,100550.56
2022-11-18T16:44:19.163Z,100553.34
2022-11-18T16:46:49.750Z,100554.66
2022-11-18T16:49:18.652Z,100553.66
2022-11-18T16:51:47.498Z,100575.66
2022-11-18T16:54:19.472Z,100563.38
2022-11-18T16:56:47.331Z,100571.31
2022-11-18T16:59:19.488Z,100564.78
2022-11-18T17:01:45.971Z,100578.97
2022-11-18T17:04:12.662Z,100571.91
2022-11-18T17:06:40.224Z,100568.00
2022-11-18T17:09:08.103Z,100570.50
2022-11-18T17:11:34.557Z,100569.59
2022-11-18T17:14:00.852Z,100571.47
2022-11-18T17:16:27.934Z,100589.16
2022-11-18T17:18:56.245Z,100591.00
2022-11-18T17:21:23.175Z,100586.91
2022-11-18T17:23:49.990Z,100608.59
2022-11-18T17:26:19.411Z,100602.34
2022-11-18T17:28:45.853Z,100618.13
2022-11-18T17:31:18.301Z,100620.53
2022-11-18T17:33:45.902Z,100619.63
2022-11-18T17:36:18.120Z,100623.03
2022-11-18T17:38:46.690Z,100624.91
2022-11-18T17:41:17.103Z,100630.03
2022-11-18T17:43:43.451Z,100625.50
2022-11-18T17:46:09.660Z,100642.19
2022-11-18T17:48:35.994Z,100628.19
2022-11-18T17:51:06.073Z,100648.09
2022-11-18T17:53:32.724Z,100635.53
2022-11-18T17:56:03.724Z,100635.25
2022-11-18T17:58:30.522Z,100638.19
2022-11-18T18:00:56.791Z,100661.00
2022-11-18T18:03:23.218Z,100643.38
2022-11-18T18:05:49.510Z,100658.63
2022-11-18T18:08:15.735Z,100667.06
2022-11-18T18:10:42.092Z,100661.31
2022-11-18T18:13:08.606Z,100679.75
2022-11-18T18:15:35.278Z,100675.63
2022-11-18T18:18:01.683Z,100698.00
2022-11-18T18:20:28.287Z,100701.72
2022-11-18T18:22:54.577Z,100688.16
2022-11-18T18:25:20.870Z,100695.81
2022-11-18T18:27:47.220Z,100689.09
2022-11-18T18:30:13.951Z,100707.06
2022-11-18T18:32:40.615Z,100705.94
2022-11-18T18:35:07.402Z,100696.09
2022-11-18T18:37:37.172Z,100699.84
2022-11-18T18:40:03.902Z,100705.56
2022-11-18T18:42:30.233Z,100703.63
2022-11-18T18:44:56.458Z,100706.69
2022-11-18T18:47:22.822Z,100708.47
2022-11-18T18:49:49.071Z,100712.53
2022-11-18T18:52:15.433Z,100709.00
2022-11-18T18:54:41.681Z,100718.09
2022-11-18T18:57:08.023Z,100721.50
2022-11-18T18:59:34.316Z,100716.63
2022-11-18T19:02:00.652Z,100723.31
2022-11-18T19:04:27.045Z,100726.69
2022-11-18T19:06:59.417Z,100731.53
2022-11-18T19:09:26.726Z,100723.47
2022-11-18T19:11:53.525Z,100732.41
2022-11-18T19:14:20.542Z,100743.88
2022-11-18T19:16:47.951Z,100730.75
2022-11-18T19:19:20.512Z,100740.50
2022-11-18T19:21:46.838Z,100761.09
2022-11-18T19:24:34.878Z,100760.75
2022-11-18T19:26:59.466Z,100742.13
2022-11-18T19:29:25.967Z,100763.50
2022-11-18T19:31:52.421Z,100766.78
2022-11-18T19:34:19.103Z,100764.06
2022-11-18T19:36:45.781Z,100772.13
2022-11-18T19:39:12.136Z,100782.84
2022-11-18T19:41:38.494Z,100782.19
2022-11-18T19:44:04.895Z,100791.28
2022-11-18T19:46:31.848Z,100781.41
2022-11-18T19:48:58.395Z,100795.16
2022-11-18T19:51:24.925Z,100812.47
2022-11-18T19:53:54.634Z,100813.13
2022-11-18T19:56:24.823Z,100808.44
2022-11-18T19:58:51.048Z,100826.91
2022-11-18T20:01:20.779Z,100822.69
2022-11-18T20:03:47.571Z,100823.97
2022-11-18T20:06:16.133Z,100827.22
2022-11-18T20:08:43.594Z,100828.50
2022-11-18T20:11:12.813Z,100820.72
2022-11-18T20:13:40.729Z,100821.22
2022-11-18T20:16:10.224Z,100820.72
2022-11-18T20:18:37.370Z,100828.78
2022-11-18T20:21:03.633Z,100825.56
2022-11-18T20:23:29.950Z,100822.75
2022-11-18T20:25:56.184Z,100839.13
2022-11-18T20:28:22.509Z,100824.81
2022-11-18T20:30:53.110Z,100841.19
2022-11-18T20:33:19.364Z,100843.78
2022-11-18T20:35:45.692Z,100842.63
2022-11-18T20:38:11.943Z,100843.75
2022-11-18T20:40:38.260Z,100848.41
2022-11-18T20:43:04.513Z,100852.38
2022-11-18T20:45:30.846Z,100848.13
2022-11-18T20:47:57.074Z,100856.19
2022-11-18T20:50:23.419Z,100851.63
2022-11-18T20:52:49.693Z,100857.94
2022-11-18T20:55:16.127Z,100864.53
2022-11-18T20:57:42.413Z,100860.28
2022-11-18T21:00:09.262Z,100865.16
2022-11-18T21:02:35.594Z,100865.94
2022-11-18T21:05:01.874Z,100874.38
2022-11-18T21:07:28.250Z,100870.28
2022-11-18T21:09:54.596Z,100874.66
2022-11-18T21:12:20.812Z,100882.31
2022-11-18T21:14:47.151Z,100867.19
2022-11-18T21:17:13.358Z,100887.50
2022-11-18T21:19:39.706Z,100878.69
2022-11-18T21:22:05.953Z,100891.03
2022-11-18T21:24:33.677Z,100895.22
2022-11-18T21:27:01.554Z,100883.06
2022-11-18T21:29:29.568Z,100882.94
2022-11-18T21:31:56.399Z,100894.56
2022-11-18T21:34:22.741Z,100895.22
2022-11-18T21:36:53.238Z,100892.00
2022-11-18T21:39:22.246Z,100889.53
2022-11-18T21:41:54.818Z,100890.19
2022-11-18T21:44:21.859Z,100889.94
2022-11-18T21:46:48.080Z,100908.34
2022-11-18T21:49:14.363Z,100881.75
2022-11-18T21:51:40.613Z,100896.53
2022-11-18T21:54:06.932Z,100893.88
2022-11-18T21:56:33.335Z,100906.88
2022-11-18T21:59:01.741Z,100910.41
2022-11-18T22:01:30.721Z,100906.25
2022-11-18T22:03:59.352Z,100902.66
2022-11-18T22:06:27.285Z,100901.28
2022-11-18T22:08:53.573Z,100900.00
2022-11-18T22:11:20.271Z,100891.69
2022-11-18T22:13:46.614Z,100911.47
2022-11-18T22:16:15.879Z,100907.78
2022-11-18T22:18:53.067Z,100890.41
2022-11-18T22:21:21.201Z,100897.44
2022-11-18T22:23:47.945Z,100900.97
2022-11-18T22:26:16.252Z,100911.16
2022-11-18T22:28:42.806Z,100897.72
2022-11-18T22:31:14.063Z,100904.25
2022-11-18T22:33:41.066Z,100903.53
2022-11-18T22:36:10.465Z,100908.81
2022-11-18T22:38:37.089Z,100904.25
2022-11-18T22:41:09.464Z,100915.38
2022-11-18T22:43:35.990Z,100905.00
2022-11-18T22:46:06.949Z,100912.75
2022-11-18T22:48:36.419Z,100920.44
2022-11-18T22:51:06.081Z,100914.28
2022-11-18T22:53:33.352Z,100925.94
2022-11-18T22:56:11.688Z,100923.00
2022-11-18T22:58:38.263Z,100927.53
2022-11-18T23:01:07.783Z,100923.75
2022-11-18T23:03:34.693Z,100922.63
2022-11-18T23:06:01.867Z,100935.13
2022-11-18T23:08:31.731Z,100945.63
2022-11-18T23:11:02.509Z,100945.31
2022-11-18T23:13:29.031Z,100951.00
2022-11-18T23:15:59.035Z,100949.16
2022-11-18T23:18:26.656Z,100944.59
2022-11-18T23:20:59.089Z,100956.66
2022-11-18T23:23:25.357Z,100965.34
2022-11-18T23:25:51.648Z,100965.50
2022-11-18T23:28:18.003Z,100952.81
2022-11-18T23:30:44.225Z,100964.03
2022-11-18T23:33:10.709Z,100968.50
2022-11-18T23:35:37.035Z,100974.84
2022-11-18T23:38:03.391Z,100970.28
2022-11-18T23:40:29.742Z,100969.75
2022-11-18T23:42:55.977Z,100986.44
2022-11-18T23:45:22.337Z,100979.72
2022-11-18T23:47:48.584Z,101000.78
2022-11-18T23:50:15.061Z,100990.22
2022-11-18T23:52:41.391Z,100990.78
2022-11-18T23:55:08.437Z,101001.16
2022-11-18T23:57:34.779Z,100991.13
